createdAt,value
2022-12-31T00:02:09.423Z,15.63
2022-12-31T00:07:14.019Z,15.50
2022-12-31T00:12:16.886Z,15.67
2022-12-31T00:17:19.761Z,15.91
2022-12-31T00:22:24.312Z,15.87
2022-12-31T00:27:27.245Z,15.84
2022-12-31T00:32:30.089Z,15.83
2022-12-31T00:37:34.613Z,15.78
2022-12-31T00:42:37.467Z,15.90
2022-12-31T00:47:40.825Z,16.07
2022-12-31T00:52:46.286Z,16.16
2022-12-31T00:57:49.129Z,16.05
2022-12-31T01:02:52.072Z,15.95
2022-12-31T01:07:56.844Z,15.91
2022-12-31T01:13:00.600Z,15.96
2022-12-31T01:18:03.778Z,15.91
2022-12-31T01:23:09.836Z,15.86
2022-12-31T01:28:12.709Z,15.95
2022-12-31T01:33:15.543Z,15.91
2022-12-31T01:38:20.079Z,15.85
2022-12-31T01:43:22.934Z,15.81
2022-12-31T01:48:27.232Z,15.79
2022-12-31T01:53:31.793Z,15.62
2022-12-31T01:58:37.449Z,15.70
2022-12-31T02:03:40.843Z,15.63
2022-12-31T02:08:45.696Z,15.52
2022-12-31T02:13:49.799Z,15.69
2022-12-31T02:18:58.703Z,15.57
2022-12-31T02:24:22.829Z,15.64
2022-12-31T02:29:46.333Z,15.80
2022-12-31T02:34:53.632Z,15.85
2022-12-31T02:39:56.624Z,15.70
2022-12-31T02:44:59.491Z,15.75
2022-12-31T02:50:10.068Z,15.73
2022-12-31T02:55:17.251Z,15.65
2022-12-31T03:00:20.492Z,15.76
2022-12-31T03:05:27.064Z,15.67
2022-12-31T03:10:29.941Z,15.61
2022-12-31T03:15:33.842Z,15.58
2022-12-31T03:20:39.237Z,15.45
2022-12-31T03:25:42.094Z,15.43
2022-12-31T03:30:45.857Z,15.42
2022-12-31T03:35:50.897Z,15.25
2022-12-31T03:40:54.330Z,15.36
2022-12-31T03:45:57.282Z,15.31
2022-12-31T03:51:01.859Z,15.46
2022-12-31T03:56:04.893Z,15.44
2022-12-31T04:01:07.974Z,15.50
2022-12-31T04:06:12.544Z,15.52
2022-12-31T04:11:20.654Z,15.65
2022-12-31T04:16:23.962Z,15.75
2022-12-31T04:21:34.650Z,15.73
2022-12-31T04:26:38.840Z,15.79
2022-12-31T04:31:41.800Z,15.83
2022-12-31T04:36:47.377Z,15.70
2022-12-31T04:41:50.242Z,15.79
2022-12-31T04:46:53.122Z,15.75
2022-12-31T04:51:57.621Z,15.70
2022-12-31T04:57:00.439Z,15.71
2022-12-31T05:02:04.207Z,15.68
2022-12-31T05:07:09.076Z,15.71
2022-12-31T05:12:11.937Z,15.68
2022-12-31T05:17:14.797Z,15.67
2022-12-31T05:22:19.739Z,15.65
2022-12-31T05:27:22.874Z,15.64
2022-12-31T05:32:25.762Z,15.71
2022-12-31T05:37:30.535Z,15.68
2022-12-31T05:42:33.463Z,15.55
2022-12-31T05:47:36.287Z,15.73
2022-12-31T05:52:47.157Z,16.02
2022-12-31T05:57:50.356Z,16.13
2022-12-31T06:02:53.290Z,16.02
2022-12-31T06:07:57.851Z,16.09
2022-12-31T06:13:00.736Z,15.93
2022-12-31T06:18:03.669Z,16.01
2022-12-31T06:23:08.171Z,15.89
2022-12-31T06:28:17.826Z,15.95
2022-12-31T06:33:22.802Z,15.89
2022-12-31T06:38:27.909Z,15.95
2022-12-31T06:43:30.764Z,15.83
2022-12-31T06:48:33.723Z,15.99
2022-12-31T06:53:38.233Z,16.05
2022-12-31T06:58:41.451Z,16.06
2022-12-31T07:03:46.795Z,15.85
2022-12-31T07:08:56.132Z,15.94
2022-12-31T07:14:03.913Z,15.88
2022-12-31T07:19:13.774Z,15.95
2022-12-31T07:24:18.915Z,15.89
2022-12-31T07:29:24.584Z,15.86
2022-12-31T07:34:32.835Z,15.82
2022-12-31T07:39:42.340Z,15.70
2022-12-31T07:44:54.503Z,15.76
2022-12-31T07:49:58.503Z,15.96
2022-12-31T07:55:03.041Z,15.69
2022-12-31T08:00:07.948Z,15.57
2022-12-31T08:05:16.320Z,15.71
2022-12-31T08:10:25.295Z,15.72
2022-12-31T08:15:30.562Z,15.68
2022-12-31T08:20:34.768Z,15.48
2022-12-31T08:25:45.580Z,15.37
2022-12-31T08:30:55.489Z,15.37
2022-12-31T08:36:08.318Z,15.25
2022-12-31T08:41:17.456Z,15.26
2022-12-31T08:46:23.007Z,15.13
2022-12-31T08:51:26.696Z,15.12
2022-12-31T08:56:33.467Z,15.08
2022-12-31T09:01:40.890Z,15.00
2022-12-31T09:06:48.470Z,15.00
2022-12-31T09:11:55.477Z,14.88
2022-12-31T09:17:02.458Z,14.88
2022-12-31T09:22:05.399Z,14.90
2022-12-31T09:27:14.027Z,14.93
2022-12-31T09:32:21.945Z,14.92
2022-12-31T09:37:31.720Z,14.97
2022-12-31T09:42:49.029Z,14.90
2022-12-31T09:48:12.696Z,14.85
2022-12-31T09:53:27.421Z,14.89
2022-12-31T09:58:37.897Z,14.89
2022-12-31T10:03:55.147Z,14.77
2022-12-31T10:09:15.535Z,14.67
2022-12-31T10:14:29.456Z,14.75
2022-12-31T10:19:52.811Z,14.74
2022-12-31T10:25:02.897Z,14.82
2022-12-31T10:30:13.142Z,14.67
2022-12-31T10:35:24.298Z,14.60
2022-12-31T10:40:38.081Z,14.66
2022-12-31T10:46:10.353Z,14.70
2022-12-31T10:51:29.026Z,14.74
2022-12-31T10:57:01.403Z,14.66
2022-12-31T11:02:17.699Z,14.65
2022-12-31T11:07:40.300Z,14.69
2022-12-31T11:13:05.871Z,14.72
2022-12-31T11:18:15.989Z,14.65
2022-12-31T11:23:27.709Z,14.67
2022-12-31T11:28:42.829Z,14.62
2022-12-31T11:33:55.533Z,14.66
2022-12-31T11:39:19.162Z,14.69
2022-12-31T11:44:29.840Z,14.68
2022-12-31T11:49:49.047Z,14.49
2022-12-31T11:54:57.503Z,14.53
2022-12-31T12:00:01.681Z,14.55
2022-12-31T12:05:10.998Z,14.56
2022-12-31T12:10:21.903Z,14.58
2022-12-31T12:15:25.987Z,14.61
2022-12-31T12:20:34.153Z,14.62
2022-12-31T12:25:40.905Z,14.60
2022-12-31T12:30:43.756Z,14.55
2022-12-31T12:35:48.434Z,14.55
2022-12-31T12:40:56.154Z,14.54
2022-12-31T12:46:00.129Z,14.47
2022-12-31T12:51:14.161Z,14.49
2022-12-31T12:56:21.619Z,14.47
2022-12-31T13:01:27.998Z,14.36
2022-12-31T13:06:37.469Z,14.43
2022-12-31T13:11:48.140Z,14.47
2022-12-31T13:16:57.316Z,14.45
2022-12-31T13:22:05.024Z,14.48
2022-12-31T13:27:12.178Z,14.44
2022-12-31T13:32:17.981Z,14.42
2022-12-31T13:37:26.651Z,14.42
2022-12-31T13:42:32.426Z,14.37
2022-12-31T13:47:37.267Z,14.40
2022-12-31T13:52:45.871Z,14.29
2022-12-31T13:57:50.357Z,14.25
2022-12-31T14:03:00.185Z,14.23
2022-12-31T14:08:06.444Z,14.26
2022-12-31T14:13:18.136Z,14.34
2022-12-31T14:18:24.315Z,14.31
2022-12-31T14:23:33.454Z,14.33
2022-12-31T14:28:44.691Z,14.36
2022-12-31T14:33:53.337Z,14.47
2022-12-31T14:39:06.117Z,14.44
2022-12-31T14:44:17.597Z,14.37
2022-12-31T14:49:40.231Z,14.35
2022-12-31T14:54:44.733Z,14.33
2022-12-31T14:59:53.148Z,14.42
2022-12-31T15:05:04.918Z,14.36
2022-12-31T15:10:15.213Z,14.35
2022-12-31T15:15:30.090Z,14.23
2022-12-31T15:20:50.201Z,14.28
2022-12-31T15:25:57.452Z,14.37
2022-12-31T15:31:02.906Z,14.35
2022-12-31T15:36:13.419Z,14.32
2022-12-31T15:41:26.336Z,14.29
2022-12-31T15:46:30.360Z,14.23
2022-12-31T15:51:36.311Z,14.22
2022-12-31T15:56:43.045Z,14.20
2022-12-31T16:01:46.628Z,14.19
2022-12-31T16:06:51.106Z,13.97
2022-12-31T16:11:56.823Z,14.00
2022-12-31T16:17:00.303Z,14.06
2022-12-31T16:22:07.304Z,14.01
2022-12-31T16:27:14.606Z,14.13
2022-12-31T16:32:18.324Z,14.17
2022-12-31T16:37:22.455Z,14.15
2022-12-31T16:42:27.949Z,14.32
2022-12-31T16:47:32.726Z,14.34
2022-12-31T16:52:37.657Z,14.28
2022-12-31T16:57:43.747Z,14.31
2022-12-31T17:02:49.524Z,14.30
2022-12-31T17:07:52.834Z,14.32
2022-12-31T17:13:27.210Z,14.21
2022-12-31T17:18:22.824Z,14.10
2022-12-31T17:23:26.975Z,14.12
2022-12-31T17:28:33.984Z,14.18
2022-12-31T17:33:36.822Z,14.18
2022-12-31T17:38:39.681Z,14.17
2022-12-31T17:43:44.284Z,14.13
2022-12-31T17:48:50.834Z,14.14
2022-12-31T17:53:53.719Z,14.04
2022-12-31T17:58:58.242Z,14.04
2022-12-31T18:04:01.061Z,13.97
2022-12-31T18:09:04.642Z,14.08
2022-12-31T18:14:09.201Z,14.12
2022-12-31T18:19:23.448Z,14.05
2022-12-31T18:24:33.673Z,13.90
2022-12-31T18:29:39.127Z,13.72
2022-12-31T18:34:42.101Z,13.55
2022-12-31T18:39:44.966Z,13.43
2022-12-31T18:44:49.525Z,13.72
2022-12-31T18:49:52.421Z,13.73
2022-12-31T18:54:55.295Z,13.68
2022-12-31T18:59:59.838Z,13.64
2022-12-31T19:05:02.666Z,13.69
2022-12-31T19:10:05.870Z,13.69
2022-12-31T19:15:16.572Z,13.69
2022-12-31T19:20:19.448Z,13.64
2022-12-31T19:25:23.069Z,13.75
2022-12-31T19:30:28.673Z,13.69
2022-12-31T19:35:31.499Z,13.48
2022-12-31T19:40:34.329Z,13.42
2022-12-31T19:45:38.883Z,13.36
2022-12-31T19:50:42.347Z,13.41
2022-12-31T19:55:45.669Z,13.35
2022-12-31T20:00:56.881Z,13.37
2022-12-31T20:06:05.735Z,13.38
2022-12-31T20:11:09.190Z,13.43
2022-12-31T20:16:14.443Z,13.37
2022-12-31T20:21:18.055Z,13.37
2022-12-31T20:26:21.693Z,13.15
2022-12-31T20:31:26.290Z,13.13
2022-12-31T20:36:29.156Z,13.20
2022-12-31T20:41:32.075Z,13.22
2022-12-31T20:46:36.732Z,13.18
2022-12-31T20:51:39.619Z,13.08
2022-12-31T20:56:42.834Z,13.02
2022-12-31T21:02:19.999Z,13.01
2022-12-31T21:07:10.216Z,12.82
2022-12-31T21:12:13.135Z,12.81
2022-12-31T21:17:17.667Z,12.67
2022-12-31T21:22:20.603Z,12.57
2022-12-31T21:27:23.440Z,12.52
2022-12-31T21:32:27.929Z,12.49
2022-12-31T21:37:57.298Z,12.98
2022-12-31T21:42:53.595Z,13.08
2022-12-31T21:48:00.863Z,13.07
2022-12-31T21:53:03.705Z,13.11
2022-12-31T22:03:31.126Z,13.21
2022-12-31T22:08:34.014Z,13.30
2022-12-31T22:13:37.176Z,13.82
2022-12-31T22:18:42.288Z,13.52
2022-12-31T22:23:45.495Z,13.00
2022-12-31T22:28:48.511Z,12.93
2022-12-31T22:33:53.693Z,12.80
2022-12-31T22:38:57.330Z,12.73
2022-12-31T22:44:03.959Z,12.71
2022-12-31T22:49:10.824Z,12.71
2022-12-31T22:54:13.758Z,12.63
2022-12-31T22:59:16.666Z,12.69
2022-12-31T23:04:22.163Z,12.50
2022-12-31T23:09:25.038Z,12.56
2022-12-31T23:14:27.955Z,12.55
2022-12-31T23:19:32.551Z,12.43
2022-12-31T23:24:35.455Z,12.41
2022-12-31T23:29:45.568Z,12.21
2022-12-31T23:34:50.935Z,12.18
2022-12-31T23:39:56.044Z,12.04
2022-12-31T23:44:58.918Z,11.95
2022-12-31T23:50:03.431Z,12.02
2022-12-31T23:55:06.439Z,11.90
